Time;durP1;ratioP1;P1;durP2;ratioP2;P2;SDS_P1;SDS_P2;PMS_P1;PMS_P2;Temp;Humidity;BMP_temperature;BMP_pressure;BME280_temperature;BME280_humidity;BME280_pressure;Samples;Min_cycle;Max_cycle;Signal;HPM_P1;HPM_P2
2024/04/14 00:00:44;;;;;;;16.35;10.65;;;;;;;;;;5492584;26;20871;-83
2024/04/14 00:03:12;;;;;;;7.95;6.65;;;;;;;;;;5492991;26;20353;-83
2024/04/14 00:05:38;;;;;;;8.00;6.60;;;;;;;;;;5492902;26;20352;-83
2024/04/14 00:08:04;;;;;;;8.20;6.68;;;;;;;;;;5492103;26;20691;-83
2024/04/14 00:10:30;;;;;;;7.28;5.28;;;;;;;;;;5492676;26;20338;-83
2024/04/14 00:12:56;;;;;;;4.50;4.10;;;;;;;;;;5491341;26;20708;-83
2024/04/14 00:15:22;;;;;;;4.72;3.83;;;;;;;;;;5490926;26;20531;-83
2024/04/14 00:17:48;;;;;;;4.07;3.67;;;;;;;;;;5493061;26;20372;-83
2024/04/14 00:20:14;;;;;;;3.60;3.30;;;;;;;;;;5492636;26;20685;-83
2024/04/14 00:22:40;;;;;;;5.60;3.65;;;;;;;;;;5492764;26;20326;-83
2024/04/14 00:25:06;;;;;;;4.53;3.20;;;;;;;;;;5492813;26;20365;-83
2024/04/14 00:27:32;;;;;;;3.80;3.40;;;;;;;;;;5491936;26;20327;-83
2024/04/14 00:29:58;;;;;;;3.88;3.42;;;;;;;;;;5492400;26;20322;-83
2024/04/14 00:32:24;;;;;;;4.22;3.53;;;;;;;;;;5492937;26;20322;-83
2024/04/14 00:34:51;;;;;;;3.95;3.47;;;;;;;;;;5493039;26;20322;-83
2024/04/14 00:37:17;;;;;;;4.25;3.50;;;;;;;;;;5493869;26;20330;-83
2024/04/14 00:39:43;;;;;;;4.63;3.42;;;;;;;;;;5492532;26;20434;-83
2024/04/14 00:42:09;;;;;;;3.78;3.20;;;;;;;;;;5489952;26;20787;-83
2024/04/14 00:44:35;;;;;;;2.93;2.70;;;;;;;;;;5493528;26;20329;-83
2024/04/14 00:47:02;;;;;;;3.33;3.00;;;;;;;;;;5492696;26;20318;-83
2024/04/14 00:49:28;;;;;;;3.03;2.83;;;;;;;;;;5492074;26;20326;-83
2024/04/14 00:51:55;;;;;;;6.07;2.63;;;;;;;;;;5493313;26;20355;-83
2024/04/14 00:54:21;;;;;;;2.88;2.67;;;;;;;;;;5492897;26;20346;-83
2024/04/14 00:56:48;;;;;;;3.95;2.90;;;;;;;;;;5492494;26;20334;-83
2024/04/14 00:59:14;;;;;;;3.20;2.90;;;;;;;;;;5493231;26;20318;-83
2024/04/14 01:01:40;;;;;;;3.13;2.83;;;;;;;;;;5492585;26;20314;-83
2024/04/14 01:04:09;;;;;;;3.45;2.70;;;;;;;;;;5492492;26;20382;-83
2024/04/14 01:06:36;;;;;;;3.17;2.83;;;;;;;;;;5492662;26;20365;-83
2024/04/14 01:09:03;;;;;;;3.37;2.70;;;;;;;;;;5492277;26;20319;-83
2024/04/14 01:11:29;;;;;;;3.20;2.90;;;;;;;;;;5492814;26;20322;-83
2024/04/14 01:13:55;;;;;;;4.13;3.30;;;;;;;;;;5492062;26;20338;-83
2024/04/14 01:16:21;;;;;;;3.70;2.90;;;;;;;;;;5492522;26;20755;-83
2024/04/14 01:18:47;;;;;;;3.97;3.10;;;;;;;;;;5492548;26;20374;-83
2024/04/14 01:21:14;;;;;;;3.10;2.80;;;;;;;;;;5492576;26;20319;-83
2024/04/14 01:23:40;;;;;;;3.33;2.87;;;;;;;;;;5493604;26;20343;-83
2024/04/14 01:26:06;;;;;;;3.20;2.90;;;;;;;;;;5495868;26;20326;-83
2024/04/14 01:28:32;;;;;;;3.95;2.90;;;;;;;;;;5496277;26;20381;-83
2024/04/14 01:30:58;;;;;;;4.10;3.17;;;;;;;;;;5495228;26;20363;-83
2024/04/14 01:33:24;;;;;;;3.92;3.13;;;;;;;;;;5495837;26;20330;-83
2024/04/14 01:35:49;;;;;;;3.47;3.17;;;;;;;;;;5496571;26;20318;-83
2024/04/14 01:38:15;;;;;;;4.60;4.20;;;;;;;;;;5495398;26;20326;-83
2024/04/14 01:40:42;;;;;;;5.85;5.00;;;;;;;;;;5483569;26;20354;-83
2024/04/14 01:43:08;;;;;;;6.35;5.45;;;;;;;;;;5491658;26;21223;-83
2024/04/14 01:45:34;;;;;;;4.57;4.13;;;;;;;;;;5495955;26;20366;-83
2024/04/14 01:48:00;;;;;;;5.80;3.60;;;;;;;;;;5495330;26;20350;-83
2024/04/14 01:50:26;;;;;;;5.07;4.25;;;;;;;;;;5495230;26;20701;-83
2024/04/14 01:52:52;;;;;;;3.80;3.50;;;;;;;;;;5495549;26;20322;-83
2024/04/14 01:55:18;;;;;;;4.10;3.70;;;;;;;;;;5495156;26;20366;-83
2024/04/14 01:57:44;;;;;;;4.40;3.93;;;;;;;;;;5495791;26;20329;-83
2024/04/14 02:00:10;;;;;;;4.25;3.40;;;;;;;;;;5495162;26;20322;-83
2024/04/14 02:02:36;;;;;;;4.93;3.92;;;;;;;;;;5495542;26;20812;-83
2024/04/14 02:05:02;;;;;;;5.15;4.45;;;;;;;;;;5494777;26;20315;-83
2024/04/14 02:07:28;;;;;;;4.53;4.13;;;;;;;;;;5495144;26;20355;-83
2024/04/14 02:09:54;;;;;;;4.10;3.80;;;;;;;;;;5495246;26;20318;-83
2024/04/14 02:12:20;;;;;;;4.83;3.63;;;;;;;;;;5495193;26;20318;-83
2024/04/14 02:14:46;;;;;;;3.80;3.50;;;;;;;;;;5495246;26;20315;-83
2024/04/14 02:17:12;;;;;;;3.63;3.33;;;;;;;;;;5495550;26;20326;-83
2024/04/14 02:19:38;;;;;;;4.05;3.70;;;;;;;;;;5495359;26;20322;-83
2024/04/14 02:22:04;;;;;;;4.25;3.40;;;;;;;;;;5495612;26;20326;-83
2024/04/14 02:24:32;;;;;;;4.97;4.00;;;;;;;;;;5488536;26;20325;-83
2024/04/14 02:26:58;;;;;;;5.15;3.70;;;;;;;;;;5472423;26;21451;-83
2024/04/14 02:29:25;;;;;;;3.42;3.10;;;;;;;;;;5468248;26;20475;-83
2024/04/14 02:31:51;;;;;;;4.50;3.17;;;;;;;;;;5475564;26;20311;-83
2024/04/14 02:34:17;;;;;;;4.05;3.13;;;;;;;;;;5495096;26;20330;-83
2024/04/14 02:36:43;;;;;;;4.60;2.95;;;;;;;;;;5495981;26;20681;-83
2024/04/14 02:39:09;;;;;;;3.33;3.03;;;;;;;;;;5495426;26;20385;-83
2024/04/14 02:41:37;;;;;;;3.17;2.97;;;;;;;;;;5487032;26;20819;-83
2024/04/14 02:44:04;;;;;;;4.28;3.33;;;;;;;;;;5495606;26;20436;-83
2024/04/14 02:46:30;;;;;;;4.20;3.33;;;;;;;;;;5494670;26;20358;-83
2024/04/14 02:48:56;;;;;;;5.57;4.90;;;;;;;;;;5494290;26;20326;-83
2024/04/14 02:51:22;;;;;;;44.47;20.10;;;;;;;;;;5495181;26;20322;-83
2024/04/14 02:53:48;;;;;;;44.17;20.53;;;;;;;;;;5494971;26;20383;-83
2024/04/14 02:56:15;;;;;;;40.58;19.45;;;;;;;;;;5494726;26;20315;-83
2024/04/14 02:58:41;;;;;;;37.63;17.88;;;;;;;;;;5494144;26;20368;-83
2024/04/14 03:01:10;;;;;;;20.98;11.63;;;;;;;;;;5494736;26;20322;-82
2024/04/14 03:03:36;;;;;;;23.80;13.80;;;;;;;;;;5494836;26;20322;-82
2024/04/14 03:06:03;;;;;;;11.32;8.63;;;;;;;;;;5494836;26;20342;-83
2024/04/14 03:08:29;;;;;;;9.68;7.13;;;;;;;;;;5494717;26;20345;-83
2024/04/14 03:10:55;;;;;;;8.55;6.55;;;;;;;;;;5494768;26;20318;-83
2024/04/14 03:13:21;;;;;;;6.72;5.40;;;;;;;;;;5493684;26;20311;-83
2024/04/14 03:15:48;;;;;;;5.70;4.78;;;;;;;;;;5494335;26;20382;-83
2024/04/14 03:18:14;;;;;;;4.20;3.80;;;;;;;;;;5494803;26;20362;-82
2024/04/14 03:20:40;;;;;;;3.90;3.40;;;;;;;;;;5494324;26;20314;-83
2024/04/14 03:23:06;;;;;;;3.70;3.33;;;;;;;;;;5493923;26;20318;-82
2024/04/14 03:25:32;;;;;;;3.63;3.33;;;;;;;;;;5494338;26;20823;-83
2024/04/14 03:27:58;;;;;;;4.25;3.60;;;;;;;;;;5494123;26;20361;-83
2024/04/14 03:30:24;;;;;;;3.67;3.30;;;;;;;;;;5495181;26;20898;-83
2024/04/14 03:32:50;;;;;;;3.60;3.10;;;;;;;;;;5494719;26;20307;-83
2024/04/14 03:35:16;;;;;;;3.58;3.28;;;;;;;;;;5494179;26;20314;-83
2024/04/14 03:37:42;;;;;;;3.50;3.20;;;;;;;;;;5494232;26;20318;-83
2024/04/14 03:40:09;;;;;;;4.03;3.22;;;;;;;;;;5493830;26;20389;-83
2024/04/14 03:42:35;;;;;;;3.03;2.80;;;;;;;;;;5494252;26;20318;-83
2024/04/14 03:45:07;;;;;;;3.95;3.10;;;;;;;;;;5493345;26;20367;-83
2024/04/14 03:47:33;;;;;;;3.20;2.90;;;;;;;;;;5491898;26;20326;-83
2024/04/14 03:49:59;;;;;;;3.88;3.40;;;;;;;;;;5493833;26;20314;-83
2024/04/14 03:52:25;;;;;;;3.80;3.40;;;;;;;;;;5494203;26;20351;-83
2024/04/14 03:54:51;;;;;;;3.50;3.17;;;;;;;;;;5493410;26;20367;-83
2024/04/14 03:57:17;;;;;;;3.47;3.17;;;;;;;;;;5493307;26;20311;-83
2024/04/14 03:59:48;;;;;;;4.20;3.25;;;;;;;;;;5493847;26;20420;-83
2024/04/14 04:02:14;;;;;;;9.75;7.30;;;;;;;;;;5493374;26;20365;-83
2024/04/14 04:04:40;;;;;;;22.63;14.02;;;;;;;;;;5493737;26;20314;-83
2024/04/14 04:07:06;;;;;;;14.87;11.03;;;;;;;;;;5493845;26;20459;-82
2024/04/14 04:09:32;;;;;;;9.07;8.13;;;;;;;;;;5494087;26;20318;-82
2024/04/14 04:11:59;;;;;;;12.05;9.70;;;;;;;;;;5493869;26;20881;-83
2024/04/14 04:14:25;;;;;;;10.18;7.57;;;;;;;;;;5493614;26;20339;-83
2024/04/14 04:16:51;;;;;;;8.63;6.32;;;;;;;;;;5492948;26;20823;-83
2024/04/14 04:19:17;;;;;;;5.93;5.38;;;;;;;;;;5493201;26;20373;-83
2024/04/14 04:21:43;;;;;;;5.18;4.68;;;;;;;;;;5492839;26;20314;-83
2024/04/14 04:24:09;;;;;;;6.40;4.60;;;;;;;;;;5493415;26;20307;-82
2024/04/14 04:26:35;;;;;;;4.50;4.10;;;;;;;;;;5493125;26;20701;-83
2024/04/14 04:29:01;;;;;;;4.68;3.97;;;;;;;;;;5493258;26;20319;-82
2024/04/14 04:31:27;;;;;;;4.07;3.67;;;;;;;;;;5492672;26;20322;-83
2024/04/14 04:33:53;;;;;;;3.90;3.60;;;;;;;;;;5493318;26;20310;-83
2024/04/14 04:36:18;;;;;;;3.67;3.38;;;;;;;;;;5493081;26;20318;-83
2024/04/14 04:38:45;;;;;;;4.10;3.70;;;;;;;;;;5493257;26;20887;-82
2024/04/14 04:41:11;;;;;;;3.83;3.47;;;;;;;;;;5477902;26;20321;-82
2024/04/14 04:43:38;;;;;;;3.90;3.60;;;;;;;;;;5492596;26;20353;-82
2024/04/14 04:46:04;;;;;;;5.47;3.58;;;;;;;;;;5491002;26;20358;-82
2024/04/14 04:48:30;;;;;;;4.53;3.70;;;;;;;;;;5491986;26;20318;-82
2024/04/14 04:50:56;;;;;;;3.97;3.58;;;;;;;;;;5491996;26;20364;-82
2024/04/14 04:53:22;;;;;;;4.33;3.83;;;;;;;;;;5492610;26;20776;-82
2024/04/14 04:55:48;;;;;;;5.57;4.32;;;;;;;;;;5492499;26;20359;-82
2024/04/14 04:58:14;;;;;;;4.23;3.90;;;;;;;;;;5490831;26;20503;-82
2024/04/14 05:00:41;;;;;;;5.43;3.85;;;;;;;;;;5492079;26;20664;-82
2024/04/14 05:03:07;;;;;;;4.33;3.93;;;;;;;;;;5491551;26;20847;-82
2024/04/14 05:05:33;;;;;;;4.88;3.95;;;;;;;;;;5492048;26;20322;-82
2024/04/14 05:07:59;;;;;;;4.15;3.75;;;;;;;;;;5491844;26;20327;-82
2024/04/14 05:10:26;;;;;;;3.88;3.58;;;;;;;;;;5491098;26;20627;-82
2024/04/14 05:12:52;;;;;;;3.97;3.65;;;;;;;;;;5491722;26;20334;-82
2024/04/14 05:15:18;;;;;;;3.78;3.45;;;;;;;;;;5492012;26;20398;-82
2024/04/14 05:17:44;;;;;;;3.90;3.47;;;;;;;;;;5491534;26;20322;-82
2024/04/14 05:20:10;;;;;;;4.13;3.40;;;;;;;;;;5492169;26;20343;-82
2024/04/14 05:22:36;;;;;;;4.03;3.63;;;;;;;;;;5492016;26;20318;-82
2024/04/14 05:25:02;;;;;;;4.00;3.70;;;;;;;;;;5491568;26;20326;-82
2024/04/14 05:27:28;;;;;;;4.70;3.92;;;;;;;;;;5491852;26;20982;-82
2024/04/14 05:29:54;;;;;;;5.60;4.37;;;;;;;;;;5490974;26;20466;-82
2024/04/14 05:32:20;;;;;;;4.57;4.18;;;;;;;;;;5491913;26;20326;-82
2024/04/14 05:34:46;;;;;;;4.32;3.75;;;;;;;;;;5491557;26;20349;-82
2024/04/14 05:37:12;;;;;;;4.10;3.70;;;;;;;;;;5492253;26;20314;-82
2024/04/14 05:39:38;;;;;;;4.82;3.60;;;;;;;;;;5492366;26;20426;-82
2024/04/14 05:42:04;;;;;;;4.60;3.83;;;;;;;;;;5475867;26;20330;-82
2024/04/14 05:44:33;;;;;;;4.07;3.47;;;;;;;;;;5492474;26;20353;-82
2024/04/14 05:46:59;;;;;;;4.43;4.03;;;;;;;;;;5491749;26;20351;-82
2024/04/14 05:49:25;;;;;;;4.05;3.70;;;;;;;;;;5491518;26;20318;-82
2024/04/14 05:51:51;;;;;;;3.90;3.60;;;;;;;;;;5492385;26;20704;-83
2024/04/14 05:54:17;;;;;;;3.83;3.53;;;;;;;;;;5484045;26;20874;-83
2024/04/14 05:56:43;;;;;;;3.80;3.40;;;;;;;;;;5480152;26;20310;-83
2024/04/14 05:59:09;;;;;;;4.80;3.50;;;;;;;;;;5464807;26;20319;-83
2024/04/14 06:01:35;;;;;;;3.75;3.45;;;;;;;;;;5490990;26;20374;-83
2024/04/14 06:04:01;;;;;;;3.83;3.53;;;;;;;;;;5491546;26;20871;-83
2024/04/14 06:06:27;;;;;;;3.87;3.53;;;;;;;;;;5491614;26;20342;-83
2024/04/14 06:08:54;;;;;;;4.00;3.60;;;;;;;;;;5491255;26;20331;-83
2024/04/14 06:11:20;;;;;;;3.60;3.30;;;;;;;;;;5493416;26;20326;-83
2024/04/14 06:13:47;;;;;;;3.40;3.13;;;;;;;;;;5494800;26;20353;-83
2024/04/14 06:16:14;;;;;;;3.67;3.38;;;;;;;;;;5495112;26;20417;-83
2024/04/14 06:18:40;;;;;;;3.55;3.25;;;;;;;;;;5494718;26;20487;-83
2024/04/14 06:21:06;;;;;;;3.85;3.55;;;;;;;;;;5494653;26;20327;-83
2024/04/14 06:23:32;;;;;;;4.17;3.80;;;;;;;;;;5494834;26;20326;-83
2024/04/14 06:25:59;;;;;;;3.67;3.38;;;;;;;;;;5494738;26;20318;-83
2024/04/14 06:28:25;;;;;;;4.00;3.70;;;;;;;;;;5494086;26;20323;-83
2024/04/14 06:30:51;;;;;;;4.93;4.50;;;;;;;;;;5494630;26;20941;-83
2024/04/14 06:33:19;;;;;;;9.40;5.90;;;;;;;;;;5494490;26;20334;-83
2024/04/14 06:35:45;;;;;;;6.18;5.57;;;;;;;;;;5495072;26;20326;-83
2024/04/14 06:38:11;;;;;;;5.63;5.13;;;;;;;;;;5494360;26;20358;-83
2024/04/14 06:40:37;;;;;;;5.80;5.30;;;;;;;;;;5484192;26;20325;-83
2024/04/14 06:43:03;;;;;;;6.55;5.95;;;;;;;;;;5490170;26;20842;-83
2024/04/14 06:45:29;;;;;;;6.93;6.33;;;;;;;;;;5495049;26;20315;-83
2024/04/14 06:47:55;;;;;;;7.10;6.43;;;;;;;;;;5494813;26;20318;-83
2024/04/14 06:50:21;;;;;;;6.65;6.05;;;;;;;;;;5492865;26;20326;-83
2024/04/14 06:52:47;;;;;;;6.90;6.30;;;;;;;;;;5494314;26;20357;-83
2024/04/14 06:55:15;;;;;;;8.25;6.35;;;;;;;;;;5493852;26;20677;-83
2024/04/14 06:57:41;;;;;;;7.70;7.00;;;;;;;;;;5494171;26;20326;-83
2024/04/14 07:00:07;;;;;;;6.93;6.32;;;;;;;;;;5493286;26;20369;-83
2024/04/14 07:02:34;;;;;;;7.22;6.07;;;;;;;;;;5471614;26;20334;-84
2024/04/14 07:05:00;;;;;;;10.93;6.13;;;;;;;;;;5493508;26;20318;-83
2024/04/14 07:07:25;;;;;;;6.60;5.93;;;;;;;;;;5493780;26;20361;-83
2024/04/14 07:09:51;;;;;;;6.40;5.90;;;;;;;;;;5494118;26;20395;-83
2024/04/14 07:12:17;;;;;;;6.20;5.60;;;;;;;;;;5493864;26;20334;-83
2024/04/14 07:14:43;;;;;;;4.45;4.05;;;;;;;;;;5493395;26;20420;-83
2024/04/14 07:17:09;;;;;;;5.03;4.20;;;;;;;;;;5493705;26;20326;-83
2024/04/14 07:19:35;;;;;;;5.07;3.60;;;;;;;;;;5493807;26;20326;-83
2024/04/14 07:22:01;;;;;;;4.40;4.00;;;;;;;;;;5493285;26;20315;-83
2024/04/14 07:24:27;;;;;;;5.53;3.60;;;;;;;;;;5493938;26;20330;-83
2024/04/14 07:26:53;;;;;;;4.57;3.47;;;;;;;;;;5493587;26;20377;-83
2024/04/14 07:29:19;;;;;;;4.45;3.60;;;;;;;;;;5493329;26;20327;-83
2024/04/14 07:31:45;;;;;;;4.90;3.20;;;;;;;;;;5494031;26;20400;-83
2024/04/14 07:34:11;;;;;;;4.72;3.13;;;;;;;;;;5493535;26;20322;-83
2024/04/14 07:36:37;;;;;;;5.67;3.20;;;;;;;;;;5494224;26;20508;-83
2024/04/14 07:39:03;;;;;;;3.03;2.75;;;;;;;;;;5493787;26;20342;-83
2024/04/14 07:41:30;;;;;;;4.65;2.90;;;;;;;;;;5478086;26;20343;-83
2024/04/14 07:43:56;;;;;;;6.43;3.45;;;;;;;;;;5492629;26;20377;-83
2024/04/14 07:46:25;;;;;;;4.63;3.10;;;;;;;;;;5494270;26;20346;-83
2024/04/14 07:48:51;;;;;;;3.57;2.70;;;;;;;;;;5493859;26;20415;-83
2024/04/14 07:51:17;;;;;;;4.45;2.88;;;;;;;;;;5493341;26;20412;-83
2024/04/14 07:53:43;;;;;;;4.35;2.67;;;;;;;;;;5494155;26;20336;-83
2024/04/14 07:56:09;;;;;;;3.50;2.78;;;;;;;;;;5493930;26;20315;-83
2024/04/14 07:58:35;;;;;;;4.03;2.92;;;;;;;;;;5493377;26;20322;-83
2024/04/14 08:01:02;;;;;;;4.20;2.97;;;;;;;;;;5493951;26;20470;-84
2024/04/14 08:03:28;;;;;;;6.10;5.60;;;;;;;;;;5494265;26;20429;-84
2024/04/14 08:05:54;;;;;;;4.33;3.93;;;;;;;;;;5494684;26;20311;-84
2024/04/14 08:08:20;;;;;;;8.57;3.45;;;;;;;;;;5493909;26;20310;-84
2024/04/14 08:10:46;;;;;;;4.82;2.72;;;;;;;;;;5493163;26;20358;-84
2024/04/14 08:13:12;;;;;;;4.68;2.65;;;;;;;;;;5493520;26;20664;-84
2024/04/14 08:15:38;;;;;;;2.83;2.30;;;;;;;;;;5493853;26;20326;-84
2024/04/14 08:18:04;;;;;;;3.30;2.22;;;;;;;;;;5493366;26;20361;-84
2024/04/14 08:20:30;;;;;;;4.10;2.50;;;;;;;;;;5493002;26;20343;-84
2024/04/14 08:22:56;;;;;;;2.40;2.20;;;;;;;;;;5492888;26;20318;-84
2024/04/14 08:25:22;;;;;;;2.70;2.17;;;;;;;;;;5493914;26;20823;-84
2024/04/14 08:27:48;;;;;;;3.53;2.30;;;;;;;;;;5493514;26;20319;-84
2024/04/14 08:30:14;;;;;;;3.60;2.10;;;;;;;;;;5493217;26;20709;-84
2024/04/14 08:32:42;;;;;;;3.53;2.20;;;;;;;;;;5492922;26;20435;-84
2024/04/14 08:35:08;;;;;;;2.50;2.00;;;;;;;;;;5493699;26;20345;-84
2024/04/14 08:37:34;;;;;;;3.90;2.20;;;;;;;;;;5493006;26;20314;-84
2024/04/14 08:40:00;;;;;;;5.45;2.25;;;;;;;;;;5492013;26;20697;-84
2024/04/14 08:42:27;;;;;;;3.17;2.05;;;;;;;;;;5479235;26;20325;-84
2024/04/14 08:44:53;;;;;;;3.38;1.92;;;;;;;;;;5493235;26;20359;-84
2024/04/14 08:47:20;;;;;;;3.47;1.90;;;;;;;;;;5493141;26;20342;-84
2024/04/14 08:49:46;;;;;;;2.35;2.00;;;;;;;;;;5492960;26;20367;-84
2024/04/14 08:52:15;;;;;;;3.03;1.90;;;;;;;;;;5493016;26;20314;-84
2024/04/14 08:54:41;;;;;;;2.37;1.57;;;;;;;;;;5490968;26;20310;-84
2024/04/14 08:57:10;;;;;;;3.47;1.90;;;;;;;;;;5492558;26;20384;-84
2024/04/14 08:59:39;;;;;;;3.95;1.70;;;;;;;;;;5492400;26;20338;-84
2024/04/14 09:02:06;;;;;;;2.95;1.90;;;;;;;;;;5495311;26;20318;-84
2024/04/14 09:04:32;;;;;;;3.15;1.55;;;;;;;;;;5493281;26;20412;-84
2024/04/14 09:06:58;;;;;;;2.13;1.70;;;;;;;;;;5493191;26;20334;-84
2024/04/14 09:09:24;;;;;;;2.17;1.60;;;;;;;;;;5493568;26;20346;-84
2024/04/14 09:11:54;;;;;;;1.67;1.58;;;;;;;;;;5494026;26;20319;-84
2024/04/14 09:14:22;;;;;;;1.98;1.73;;;;;;;;;;5492152;26;20326;-84
2024/04/14 09:16:48;;;;;;;3.17;1.80;;;;;;;;;;5493200;26;20326;-84
2024/04/14 09:19:14;;;;;;;2.42;1.58;;;;;;;;;;5492121;26;20361;-84
2024/04/14 09:21:40;;;;;;;3.95;1.63;;;;;;;;;;5493035;26;20318;-84
2024/04/14 09:24:06;;;;;;;3.25;1.48;;;;;;;;;;5492898;26;20416;-84
2024/04/14 09:26:32;;;;;;;2.70;1.50;;;;;;;;;;5493159;26;20334;-85
2024/04/14 09:29:02;;;;;;;2.80;1.43;;;;;;;;;;5492910;26;20318;-85
2024/04/14 09:31:28;;;;;;;2.30;1.65;;;;;;;;;;5493008;26;20318;-84
2024/04/14 09:33:55;;;;;;;2.40;1.70;;;;;;;;;;5492877;26;21039;-85
2024/04/14 09:36:27;;;;;;;2.72;1.60;;;;;;;;;;5492828;26;20322;-85
2024/04/14 09:38:53;;;;;;;2.58;1.50;;;;;;;;;;5491961;26;20314;-85
2024/04/14 09:41:21;;;;;;;2.03;1.50;;;;;;;;;;5476720;26;20314;-85
2024/04/14 09:43:47;;;;;;;2.25;1.55;;;;;;;;;;5492220;26;20322;-84
2024/04/14 09:46:14;;;;;;;2.53;1.30;;;;;;;;;;5495310;26;20675;-85
2024/04/14 09:48:42;;;;;;;3.92;1.58;;;;;;;;;;5495990;26;20362;-85
2024/04/14 09:51:09;;;;;;;2.60;1.50;;;;;;;;;;5496033;26;20354;-85
2024/04/14 09:53:35;;;;;;;4.03;1.57;;;;;;;;;;5470598;26;20393;-85
2024/04/14 09:56:02;;;;;;;1.40;1.20;;;;;;;;;;5496573;26;20372;-85
2024/04/14 09:58:28;;;;;;;3.57;1.40;;;;;;;;;;5495509;26;20315;-85
2024/04/14 10:00:57;;;;;;;2.75;1.17;;;;;;;;;;5495847;26;20337;-84
2024/04/14 10:03:25;;;;;;;1.33;1.23;;;;;;;;;;5496246;26;20343;-85
2024/04/14 10:05:52;;;;;;;2.30;1.40;;;;;;;;;;5495268;26;20318;-85
2024/04/14 10:08:18;;;;;;;1.65;1.20;;;;;;;;;;5495674;26;20374;-85
2024/04/14 10:10:44;;;;;;;2.70;1.30;;;;;;;;;;5494791;26;20353;-85
2024/04/14 10:13:12;;;;;;;1.80;1.17;;;;;;;;;;5493796;26;20334;-85
2024/04/14 10:15:39;;;;;;;2.13;1.43;;;;;;;;;;5494776;26;20398;-85
2024/04/14 10:18:15;;;;;;;3.50;1.13;;;;;;;;;;5495566;26;20334;-85
2024/04/14 10:20:41;;;;;;;2.22;1.38;;;;;;;;;;5495723;26;20346;-85
2024/04/14 10:23:07;;;;;;;3.13;1.10;;;;;;;;;;5496825;26;20358;-87
2024/04/14 10:25:33;;;;;;;1.80;1.10;;;;;;;;;;5496108;26;20322;-84
2024/04/14 10:27:59;;;;;;;2.45;1.30;;;;;;;;;;5495233;26;20322;-85
2024/04/14 10:30:26;;;;;;;1.65;1.13;;;;;;;;;;5494612;26;20334;-84
2024/04/14 10:33:04;;;;;;;2.83;1.40;;;;;;;;;;5495462;26;20483;-85
2024/04/14 10:35:30;;;;;;;1.98;1.20;;;;;;;;;;5495721;26;20329;-85
2024/04/14 10:37:56;;;;;;;2.95;1.23;;;;;;;;;;5496243;26;20334;-85
2024/04/14 10:40:23;;;;;;;1.63;0.85;;;;;;;;;;5489543;26;20778;-85
2024/04/14 10:42:49;;;;;;;3.00;1.15;;;;;;;;;;5488547;26;20355;-84
2024/04/14 10:45:30;;;;;;;2.10;1.00;;;;;;;;;;5497438;26;20322;-85
2024/04/14 10:47:57;;;;;;;2.25;1.10;;;;;;;;;;5496711;26;20408;-85
2024/04/14 10:50:24;;;;;;;3.33;1.17;;;;;;;;;;5497324;26;20334;-85
2024/04/14 10:52:50;;;;;;;1.53;0.90;;;;;;;;;;5495760;26;20456;-85
2024/04/14 10:55:16;;;;;;;1.50;1.20;;;;;;;;;;5492581;26;20420;-84
2024/04/14 10:57:42;;;;;;;1.98;1.08;;;;;;;;;;5509288;26;20321;-85
2024/04/14 11:00:09;;;;;;;2.00;1.00;;;;;;;;;;5486112;26;20314;-85
2024/04/14 11:02:35;;;;;;;2.28;1.00;;;;;;;;;;5496320;26;20656;-85
2024/04/14 11:05:01;;;;;;;2.35;1.10;;;;;;;;;;5494819;26;20366;-85
2024/04/14 11:07:27;;;;;;;1.85;1.10;;;;;;;;;;5495676;26;20330;-84
2024/04/14 11:09:54;;;;;;;2.50;0.95;;;;;;;;;;5496281;26;20686;-85
2024/04/14 11:12:20;;;;;;;2.08;0.90;;;;;;;;;;5496509;26;20322;-85
2024/04/14 11:14:46;;;;;;;1.42;0.80;;;;;;;;;;5496370;26;20350;-85
2024/04/14 11:17:12;;;;;;;1.45;0.95;;;;;;;;;;5496877;26;20758;-84
2024/04/14 11:19:38;;;;;;;3.75;1.17;;;;;;;;;;5493917;26;20343;-84
2024/04/14 11:22:05;;;;;;;3.50;0.90;;;;;;;;;;5495576;26;20323;-85
2024/04/14 11:24:34;;;;;;;2.20;1.02;;;;;;;;;;5495414;26;20310;-85
2024/04/14 11:26:59;;;;;;;1.77;0.90;;;;;;;;;;5478264;26;20871;-84
2024/04/14 11:29:26;;;;;;;1.10;0.90;;;;;;;;;;5496074;26;20318;-85
2024/04/14 11:31:53;;;;;;;1.13;1.00;;;;;;;;;;5496447;26;20378;-85
2024/04/14 11:34:19;;;;;;;1.83;0.80;;;;;;;;;;5495718;26;20322;-85
2024/04/14 11:36:47;;;;;;;1.77;0.80;;;;;;;;;;5497330;26;20326;-85
2024/04/14 11:39:13;;;;;;;1.83;1.05;;;;;;;;;;5496713;26;20420;-85
2024/04/14 11:41:40;;;;;;;1.25;1.10;;;;;;;;;;5480724;26;20319;-85
2024/04/14 11:44:07;;;;;;;1.27;1.17;;;;;;;;;;5497008;26;20360;-85
2024/04/14 11:46:33;;;;;;;2.35;1.00;;;;;;;;;;5497089;26;20314;-85
2024/04/14 11:48:59;;;;;;;1.77;1.05;;;;;;;;;;5496718;26;20892;-85
2024/04/14 11:51:25;;;;;;;1.40;1.00;;;;;;;;;;5495709;26;20330;-85
2024/04/14 11:53:51;;;;;;;1.38;0.93;;;;;;;;;;5493900;26;20315;-84
2024/04/14 11:56:17;;;;;;;1.40;0.80;;;;;;;;;;5493758;26;20349;-85
2024/04/14 11:58:43;;;;;;;0.95;0.77;;;;;;;;;;5491922;26;20425;-84
2024/04/14 12:01:09;;;;;;;2.90;1.20;;;;;;;;;;5494810;26;20326;-85
2024/04/14 12:03:35;;;;;;;0.85;0.80;;;;;;;;;;5493803;26;20326;-84
2024/04/14 12:06:01;;;;;;;1.60;1.10;;;;;;;;;;5493504;26;20350;-84
2024/04/14 12:08:27;;;;;;;2.40;0.98;;;;;;;;;;5492514;26;20366;-84
2024/04/14 12:10:53;;;;;;;2.40;1.00;;;;;;;;;;5493302;26;20334;-84
2024/04/14 12:13:19;;;;;;;2.30;0.95;;;;;;;;;;5493817;26;20318;-84
2024/04/14 12:15:48;;;;;;;1.63;0.95;;;;;;;;;;5492938;26;20843;-84
2024/04/14 12:18:14;;;;;;;3.30;0.93;;;;;;;;;;5493170;26;20713;-84
2024/04/14 12:20:40;;;;;;;1.13;1.00;;;;;;;;;;5492236;26;20382;-84
2024/04/14 12:23:06;;;;;;;1.50;1.17;;;;;;;;;;5493293;26;20318;-84
2024/04/14 12:25:32;;;;;;;1.67;1.00;;;;;;;;;;5492988;26;20403;-84
2024/04/14 12:27:58;;;;;;;2.05;1.00;;;;;;;;;;5491778;26;20330;-84
2024/04/14 12:30:24;;;;;;;2.10;0.98;;;;;;;;;;5492372;26;20326;-84
2024/04/14 12:32:50;;;;;;;1.27;0.80;;;;;;;;;;5493219;26;20823;-83
2024/04/14 12:35:16;;;;;;;1.27;0.95;;;;;;;;;;5491906;26;20319;-83
2024/04/14 12:37:43;;;;;;;1.50;1.00;;;;;;;;;;5492407;26;20343;-84
2024/04/14 12:40:09;;;;;;;1.10;0.90;;;;;;;;;;5488888;26;20387;-83
2024/04/14 12:42:36;;;;;;;2.20;1.00;;;;;;;;;;5480471;26;20326;-84
2024/04/14 12:45:02;;;;;;;4.40;1.13;;;;;;;;;;5491274;26;20343;-84
2024/04/14 12:47:28;;;;;;;1.80;0.90;;;;;;;;;;5492406;26;20658;-84
2024/04/14 12:49:55;;;;;;;1.75;1.10;;;;;;;;;;5491617;26;20326;-83
2024/04/14 12:52:21;;;;;;;3.08;1.20;;;;;;;;;;5491495;26;20661;-84
2024/04/14 12:54:47;;;;;;;1.40;0.90;;;;;;;;;;5491484;26;20392;-83
2024/04/14 12:57:13;;;;;;;3.15;1.00;;;;;;;;;;5491477;26;20323;-84
2024/04/14 12:59:39;;;;;;;1.52;1.02;;;;;;;;;;5501436;26;20405;-85
2024/04/14 13:02:05;;;;;;;1.90;1.20;;;;;;;;;;5484597;26;20322;-83
2024/04/14 13:04:31;;;;;;;1.20;1.10;;;;;;;;;;5491471;26;20350;-84
2024/04/14 13:06:57;;;;;;;1.15;0.98;;;;;;;;;;5492167;26;20338;-84
2024/04/14 13:09:23;;;;;;;1.48;0.98;;;;;;;;;;5491283;26;20319;-84
2024/04/14 13:11:49;;;;;;;1.63;1.20;;;;;;;;;;5492856;26;20343;-84
2024/04/14 13:14:15;;;;;;;1.75;1.10;;;;;;;;;;5492805;26;20378;-84
2024/04/14 13:16:41;;;;;;;2.42;1.25;;;;;;;;;;5492190;26;20386;-84
2024/04/14 13:19:07;;;;;;;3.78;1.10;;;;;;;;;;5489402;26;20351;-84
2024/04/14 13:21:33;;;;;;;3.40;0.90;;;;;;;;;;5492648;26;20318;-83
2024/04/14 13:23:59;;;;;;;3.22;1.20;;;;;;;;;;5492171;26;20385;-84
2024/04/14 13:26:27;;;;;;;7.63;1.30;;;;;;;;;;5490247;26;20334;-84
2024/04/14 13:28:54;;;;;;;4.22;1.42;;;;;;;;;;5491756;26;20319;-84
2024/04/14 13:31:20;;;;;;;4.78;1.20;;;;;;;;;;5492202;26;20353;-84
2024/04/14 13:33:46;;;;;;;1.92;1.10;;;;;;;;;;5492527;26;20326;-84
2024/04/14 13:36:12;;;;;;;2.10;1.20;;;;;;;;;;5491864;26;20326;-84
2024/04/14 13:38:38;;;;;;;3.55;1.20;;;;;;;;;;5491874;26;21413;-84
2024/04/14 13:41:08;;;;;;;1.08;0.95;;;;;;;;;;5491540;26;20322;-84
2024/04/14 13:43:34;;;;;;;2.22;1.10;;;;;;;;;;5491937;26;20411;-84
2024/04/14 13:46:00;;;;;;;1.58;1.02;;;;;;;;;;5492315;26;20330;-82
2024/04/14 13:48:26;;;;;;;2.65;1.00;;;;;;;;;;5492032;26;20402;-82
2024/04/14 13:50:52;;;;;;;2.30;1.00;;;;;;;;;;5492112;26;20315;-82
2024/04/14 13:53:18;;;;;;;1.90;0.82;;;;;;;;;;5492112;26;20319;-82
2024/04/14 13:55:44;;;;;;;1.85;1.00;;;;;;;;;;5491958;26;20350;-82
2024/04/14 13:58:11;;;;;;;2.38;1.10;;;;;;;;;;5492438;26;20374;-83
2024/04/14 14:00:39;;;;;;;1.52;1.20;;;;;;;;;;5491748;26;20348;-83
2024/04/14 14:03:05;;;;;;;1.30;1.20;;;;;;;;;;5491436;26;20392;-85
2024/04/14 14:05:31;;;;;;;1.80;1.10;;;;;;;;;;5492136;26;20334;-83
2024/04/14 14:07:59;;;;;;;1.20;1.08;;;;;;;;;;5491598;26;20450;-83
2024/04/14 14:10:25;;;;;;;1.70;1.13;;;;;;;;;;5490503;26;20334;-83
2024/04/14 14:12:51;;;;;;;1.65;1.10;;;;;;;;;;5491956;26;20827;-83
2024/04/14 14:15:17;;;;;;;1.48;1.15;;;;;;;;;;5492197;26;20350;-83
2024/04/14 14:17:43;;;;;;;1.13;1.02;;;;;;;;;;5491608;26;20322;-83
2024/04/14 14:20:09;;;;;;;2.30;1.20;;;;;;;;;;5491202;26;20401;-83
2024/04/14 14:22:35;;;;;;;2.75;1.20;;;;;;;;;;5491613;26;20334;-83
2024/04/14 14:25:01;;;;;;;2.42;1.30;;;;;;;;;;5491910;26;20341;-83
2024/04/14 14:27:27;;;;;;;1.20;1.10;;;;;;;;;;5491183;26;20343;-82
2024/04/14 14:29:53;;;;;;;2.47;1.10;;;;;;;;;;5491027;26;20370;-83
2024/04/14 14:32:19;;;;;;;5.40;1.20;;;;;;;;;;5492793;26;20326;-82
2024/04/14 14:37:29;;;;;;;1.92;1.10;;;;;;;;;;5494811;26;20335;-83
2024/04/14 14:39:55;;;;;;;1.73;1.00;;;;;;;;;;5494734;26;20679;-83